createdAt,value
2019-03-08T00:00:44.155Z,99817.92
2019-03-08T00:01:49.820Z,99814.77
2019-03-08T00:02:55.111Z,99816.10
2019-03-08T00:04:00.687Z,99821.23
2019-03-08T00:05:05.573Z,99826.06
2019-03-08T00:06:11.035Z,99816.50
2019-03-08T00:07:16.291Z,99824.71
2019-03-08T00:08:21.604Z,99819.69
2019-03-08T00:09:28.196Z,99823.17
2019-03-08T00:10:33.510Z,99822.84
2019-03-08T00:11:38.449Z,99833.41
2019-03-08T00:12:43.985Z,99832.51
2019-03-08T00:13:49.031Z,99825.95
2019-03-08T00:14:54.584Z,99846.36
2019-03-08T00:15:59.837Z,99830.64
2019-03-08T00:17:04.644Z,99823.02
2019-03-08T00:18:09.658Z,99832.42
2019-03-08T00:19:14.957Z,99833.38
2019-03-08T00:20:20.002Z,99833.23
2019-03-08T00:21:25.340Z,99833.14
2019-03-08T00:22:30.906Z,99825.42
2019-03-08T00:23:36.164Z,99826.74
2019-03-08T00:24:40.880Z,99852.62
2019-03-08T00:25:46.199Z,99840.31
2019-03-08T00:26:51.921Z,99831.69
2019-03-08T00:27:56.829Z,99831.81
2019-03-08T00:29:03.304Z,99841.16
2019-03-08T00:30:08.618Z,99827.52
2019-03-08T00:31:13.451Z,99829.09
2019-03-08T00:32:18.178Z,99835.50
2019-03-08T00:33:23.720Z,99841.70
2019-03-08T00:34:29.127Z,99849.28
2019-03-08T00:35:33.877Z,99845.17
2019-03-08T00:36:39.144Z,99838.75
2019-03-08T00:37:47.345Z,99839.04
2019-03-08T00:38:52.306Z,99854.60
2019-03-08T00:39:57.895Z,99851.68
2019-03-08T00:41:02.615Z,99851.90
2019-03-08T00:42:07.729Z,99853.70
2019-03-08T00:43:13.061Z,99849.27
2019-03-08T00:44:17.815Z,99862.32
2019-03-08T00:45:23.096Z,99854.67
2019-03-08T00:46:28.394Z,99862.81
2019-03-08T00:47:33.119Z,99860.52
2019-03-08T00:48:38.207Z,99852.72
2019-03-08T00:49:43.828Z,99858.79
2019-03-08T00:50:49.003Z,99864.23
2019-03-08T00:51:54.082Z,99861.04
2019-03-08T00:52:59.106Z,99866.27
2019-03-08T00:54:04.098Z,99868.67
2019-03-08T00:55:09.211Z,99865.31
2019-03-08T00:56:14.243Z,99873.73
2019-03-08T00:57:19.571Z,99867.94
2019-03-08T00:58:25.105Z,99875.91
2019-03-08T00:59:30.186Z,99884.59
2019-03-08T01:00:34.872Z,99878.36
2019-03-08T01:01:39.710Z,99877.03
2019-03-08T01:02:44.969Z,99889.48
2019-03-08T01:03:50.329Z,99888.16
2019-03-08T01:04:55.851Z,99887.70
2019-03-08T01:06:00.829Z,99883.47
2019-03-08T01:07:05.730Z,99886.06
2019-03-08T01:08:10.743Z,99887.27
2019-03-08T01:09:16.012Z,99889.75
2019-03-08T01:10:22.262Z,99900.00
2019-03-08T01:11:28.951Z,99887.28
2019-03-08T01:12:33.912Z,99899.01
2019-03-08T01:13:39.342Z,99894.67
2019-03-08T01:14:44.754Z,99901.04
2019-03-08T01:15:49.490Z,99896.83
2019-03-08T01:16:54.183Z,99905.74
2019-03-08T01:17:59.248Z,99898.84
2019-03-08T01:19:04.866Z,99911.79
2019-03-08T01:20:10.444Z,99910.95
2019-03-08T01:21:15.148Z,99908.73
2019-03-08T01:22:19.841Z,99905.64
2019-03-08T01:23:24.587Z,99910.30
2019-03-08T01:24:29.358Z,99914.27
2019-03-08T01:25:34.587Z,99914.20
2019-03-08T01:26:39.289Z,99913.92
2019-03-08T01:27:58.474Z,99908.16
2019-03-08T01:29:03.786Z,99919.80
2019-03-08T01:30:10.581Z,99922.72
2019-03-08T01:31:15.321Z,99926.94
2019-03-08T01:32:20.318Z,99918.54
2019-03-08T01:33:25.346Z,99918.74
2019-03-08T01:34:30.701Z,99924.31
2019-03-08T01:35:35.661Z,99931.99
2019-03-08T01:36:40.634Z,99921.88
2019-03-08T01:37:45.954Z,99933.41
2019-03-08T01:38:50.727Z,99933.61
2019-03-08T01:39:55.811Z,99928.41
2019-03-08T01:41:00.993Z,99941.69
2019-03-08T01:42:05.789Z,99937.48
2019-03-08T01:43:11.074Z,99943.80
2019-03-08T01:44:16.047Z,99939.23
2019-03-08T01:45:21.342Z,99951.95
2019-03-08T01:46:26.739Z,99948.78
2019-03-08T01:47:32.043Z,99951.29
2019-03-08T01:48:36.761Z,99950.17
2019-03-08T01:49:42.003Z,99952.47
2019-03-08T01:50:47.211Z,99957.23
2019-03-08T01:51:52.209Z,99960.72
2019-03-08T01:52:57.263Z,99952.52
2019-03-08T01:54:02.209Z,99957.59
2019-03-08T01:55:07.715Z,99954.81
2019-03-08T01:56:12.800Z,99957.23
2019-03-08T01:57:18.392Z,99954.33
2019-03-08T01:58:23.633Z,99962.73
2019-03-08T01:59:28.676Z,99967.72
2019-03-08T02:00:34.035Z,99964.73
2019-03-08T02:01:39.465Z,99972.22
2019-03-08T02:02:44.913Z,99968.97
2019-03-08T02:03:50.275Z,99970.96
2019-03-08T02:04:54.961Z,99970.92
2019-03-08T02:06:00.315Z,99969.55
2019-03-08T02:07:06.166Z,99974.20
2019-03-08T02:08:11.200Z,99981.02
2019-03-08T02:09:15.910Z,99965.33
2019-03-08T02:10:20.477Z,99965.38
2019-03-08T02:11:25.777Z,99973.61
2019-03-08T02:12:30.549Z,99971.81
2019-03-08T02:13:35.815Z,99974.02
2019-03-08T02:14:40.866Z,99975.02
2019-03-08T02:15:45.570Z,99974.05
2019-03-08T02:16:50.879Z,99966.03
2019-03-08T02:17:55.617Z,99971.14
2019-03-08T02:19:00.973Z,99974.91
2019-03-08T02:20:06.795Z,99965.45
2019-03-08T02:21:12.152Z,99976.81
2019-03-08T02:22:17.382Z,99971.56
2019-03-08T02:23:22.652Z,99981.23
2019-03-08T02:24:28.181Z,99985.91
2019-03-08T02:25:33.684Z,99980.77
2019-03-08T02:26:38.826Z,99973.84
2019-03-08T02:27:43.546Z,99987.41
2019-03-08T02:28:48.761Z,99983.02
2019-03-08T02:29:53.884Z,99975.70
2019-03-08T02:30:59.446Z,99981.80
2019-03-08T02:32:05.169Z,99974.38
2019-03-08T02:33:10.445Z,99989.03
2019-03-08T02:34:15.124Z,99988.97
2019-03-08T02:35:20.520Z,99985.93
2019-03-08T02:36:26.191Z,99988.08
2019-03-08T02:37:31.574Z,99981.95
2019-03-08T02:38:36.544Z,99988.80
2019-03-08T02:39:42.113Z,99987.58
2019-03-08T02:40:47.097Z,99987.20
2019-03-08T02:41:52.072Z,99989.98
2019-03-08T02:42:57.062Z,99988.99
2019-03-08T02:44:02.514Z,99991.28
2019-03-08T02:45:07.320Z,99986.68
2019-03-08T02:46:12.998Z,99993.83
2019-03-08T02:47:18.417Z,99991.70
2019-03-08T02:48:23.703Z,99996.96
2019-03-08T02:49:28.484Z,99994.86
2019-03-08T02:50:33.812Z,99998.75
2019-03-08T02:51:38.785Z,99994.98
2019-03-08T02:52:44.302Z,99995.45
2019-03-08T02:53:49.617Z,100004.23
2019-03-08T02:54:54.756Z,100000.78
2019-03-08T02:55:59.646Z,99991.16
2019-03-08T02:57:04.682Z,100002.78
2019-03-08T02:58:10.084Z,99999.73
2019-03-08T02:59:15.067Z,99999.90
2019-03-08T03:00:19.962Z,100013.83
2019-03-08T03:01:24.732Z,100014.45
2019-03-08T03:02:30.139Z,100006.89
2019-03-08T03:03:35.410Z,100015.23
2019-03-08T03:04:40.593Z,100014.91
2019-03-08T03:05:45.615Z,100007.41
2019-03-08T03:06:50.378Z,100011.46
2019-03-08T03:07:55.801Z,100009.91
2019-03-08T03:09:00.976Z,100007.41
2019-03-08T03:10:06.497Z,100015.45
2019-03-08T03:11:11.838Z,100023.77
2019-03-08T03:12:17.401Z,100018.53
2019-03-08T03:13:22.539Z,100020.23
2019-03-08T03:14:27.864Z,100024.28
2019-03-08T03:15:33.120Z,100017.50
2019-03-08T03:16:38.394Z,100020.58
2019-03-08T03:17:43.745Z,100020.05
2019-03-08T03:18:49.127Z,100011.03
2019-03-08T03:19:54.493Z,100018.78
2019-03-08T03:20:59.581Z,100024.00
2019-03-08T03:22:04.300Z,100021.50
2019-03-08T03:23:09.599Z,100028.89
2019-03-08T03:24:15.222Z,100036.80
2019-03-08T03:25:21.087Z,100035.03
2019-03-08T03:26:26.329Z,100046.05
2019-03-08T03:27:31.215Z,100034.22
2019-03-08T03:28:36.476Z,100035.09
2019-03-08T03:29:41.747Z,100040.07
2019-03-08T03:30:46.795Z,100054.50
2019-03-08T03:31:52.234Z,100061.22
2019-03-08T03:32:57.531Z,100057.56
2019-03-08T03:34:02.802Z,100057.38
2019-03-08T03:35:07.884Z,100062.33
2019-03-08T03:36:12.894Z,100065.88
2019-03-08T03:37:18.073Z,100080.09
2019-03-08T03:38:22.815Z,100088.47
2019-03-08T03:39:28.147Z,100105.80
2019-03-08T03:40:32.833Z,100108.14
2019-03-08T03:41:38.188Z,100107.48
2019-03-08T03:42:43.281Z,100116.94
2019-03-08T03:43:48.664Z,100118.77
2019-03-08T03:44:53.365Z,100123.06
2019-03-08T03:45:58.717Z,100118.83
2019-03-08T03:47:03.215Z,100122.69
2019-03-08T03:48:08.186Z,100129.80
2019-03-08T03:49:13.572Z,100131.48
2019-03-08T03:50:18.941Z,100133.11
2019-03-08T03:51:23.892Z,100128.73
2019-03-08T03:52:28.698Z,100141.98
2019-03-08T03:53:33.852Z,100141.02
2019-03-08T03:54:39.271Z,100144.11
2019-03-08T03:55:43.811Z,100144.95
2019-03-08T03:56:48.795Z,100146.90
2019-03-08T03:57:53.536Z,100147.73
2019-03-08T03:58:58.798Z,100144.44
2019-03-08T04:00:04.137Z,100144.63
2019-03-08T04:01:24.048Z,100152.15
2019-03-08T04:02:29.551Z,100147.34
2019-03-08T04:03:34.797Z,100144.61
2019-03-08T04:04:39.876Z,100146.92
2019-03-08T04:05:44.552Z,100151.81
2019-03-08T04:06:49.274Z,100152.11
2019-03-08T04:07:54.262Z,100153.38
2019-03-08T04:08:59.568Z,100149.80
2019-03-08T04:10:04.725Z,100159.94
2019-03-08T04:11:09.723Z,100163.47
2019-03-08T04:12:14.752Z,100165.84
2019-03-08T04:13:19.286Z,100166.34
2019-03-08T04:14:24.260Z,100168.19
2019-03-08T04:15:29.686Z,100168.38
2019-03-08T04:16:34.874Z,100170.72
2019-03-08T04:17:39.979Z,100175.02
2019-03-08T04:18:44.739Z,100177.05
2019-03-08T04:19:50.094Z,100181.19
2019-03-08T04:20:54.975Z,100178.56
2019-03-08T04:22:00.119Z,100183.47
2019-03-08T04:23:05.224Z,100184.53
2019-03-08T04:24:10.122Z,100182.34
2019-03-08T04:25:15.108Z,100192.43
2019-03-08T04:26:20.127Z,100192.06
2019-03-08T04:27:25.161Z,100189.17
2019-03-08T04:28:30.903Z,100195.78
2019-03-08T04:29:36.272Z,100198.02
2019-03-08T04:30:42.010Z,100198.72
2019-03-08T04:31:47.619Z,100209.27
2019-03-08T04:32:53.287Z,100214.84
2019-03-08T04:33:58.443Z,100212.16
2019-03-08T04:35:03.168Z,100217.66
2019-03-08T04:36:08.176Z,100216.20
2019-03-08T04:37:14.052Z,100212.22
2019-03-08T04:38:19.373Z,100217.86
2019-03-08T04:39:24.810Z,100213.69
2019-03-08T04:40:30.035Z,100215.84
2019-03-08T04:41:35.398Z,100212.81
2019-03-08T04:42:40.454Z,100214.44
2019-03-08T04:43:45.759Z,100209.70
2019-03-08T04:44:51.142Z,100215.84
2019-03-08T04:45:56.485Z,100209.91
2019-03-08T04:47:01.481Z,100213.83
2019-03-08T04:48:06.218Z,100212.91
2019-03-08T04:49:11.612Z,100218.23
2019-03-08T04:50:16.343Z,100213.12
2019-03-08T04:51:21.964Z,100210.48
2019-03-08T04:52:27.245Z,100215.89
2019-03-08T04:53:32.479Z,100209.80
2019-03-08T04:54:37.824Z,100211.23
2019-03-08T04:55:43.509Z,100221.18
2019-03-08T04:56:48.784Z,100216.95
2019-03-08T04:57:54.107Z,100222.03
2019-03-08T04:58:59.343Z,100228.62
2019-03-08T05:00:04.544Z,100225.50
2019-03-08T05:01:09.854Z,100224.88
2019-03-08T05:02:15.223Z,100231.64
2019-03-08T05:03:20.232Z,100230.69
2019-03-08T05:04:25.401Z,100233.06
2019-03-08T05:05:30.741Z,100234.65
2019-03-08T05:06:36.012Z,100238.45
2019-03-08T05:07:41.454Z,100241.27
2019-03-08T05:08:46.906Z,100235.75
2019-03-08T05:09:52.493Z,100238.27
2019-03-08T05:10:57.837Z,100242.12
2019-03-08T05:12:02.903Z,100245.49
2019-03-08T05:13:08.104Z,100238.83
2019-03-08T05:14:13.568Z,100241.81
2019-03-08T05:15:19.406Z,100240.16
2019-03-08T05:16:24.568Z,100231.48
2019-03-08T05:17:30.211Z,100252.55
2019-03-08T05:18:35.510Z,100245.44
2019-03-08T05:19:40.688Z,100254.02
2019-03-08T05:20:46.091Z,100245.04
2019-03-08T05:21:51.066Z,100251.08
2019-03-08T05:22:56.729Z,100252.44
2019-03-08T05:24:02.336Z,100256.91
2019-03-08T05:25:07.551Z,100253.34
2019-03-08T05:26:15.518Z,100253.13
2019-03-08T05:27:20.729Z,100249.32
2019-03-08T05:28:26.777Z,100259.78
2019-03-08T05:29:31.729Z,100261.74
2019-03-08T05:30:37.145Z,100260.26
2019-03-08T05:31:41.925Z,100256.95
2019-03-08T05:32:47.045Z,100266.64
2019-03-08T05:33:52.009Z,100261.05
2019-03-08T05:34:57.001Z,100266.08
2019-03-08T05:36:02.037Z,100260.92
2019-03-08T05:37:07.138Z,100260.64
2019-03-08T05:38:12.458Z,100263.91
2019-03-08T05:39:17.800Z,100268.67
2019-03-08T05:40:23.373Z,100278.81
2019-03-08T05:41:28.997Z,100279.70
2019-03-08T05:42:34.107Z,100281.58
2019-03-08T05:43:39.671Z,100290.70
2019-03-08T05:44:44.944Z,100288.45
2019-03-08T05:45:49.937Z,100291.13
2019-03-08T05:46:54.905Z,100290.80
2019-03-08T05:48:00.361Z,100295.76
2019-03-08T05:49:05.190Z,100295.90
2019-03-08T05:50:10.507Z,100301.09
2019-03-08T05:51:15.614Z,100297.87
2019-03-08T05:52:20.856Z,100307.61
2019-03-08T05:53:26.173Z,100307.39
2019-03-08T05:54:31.289Z,100314.42
2019-03-08T05:55:36.565Z,100318.11
2019-03-08T05:56:41.698Z,100319.60
2019-03-08T05:57:46.656Z,100323.12
2019-03-08T05:58:51.884Z,100329.45
2019-03-08T05:59:57.433Z,100329.70
2019-03-08T06:01:02.399Z,100340.77
2019-03-08T06:02:07.456Z,100335.82
2019-03-08T06:03:12.191Z,100340.99
2019-03-08T06:04:17.167Z,100343.16
2019-03-08T06:05:21.909Z,100349.64
2019-03-08T06:06:27.361Z,100350.77
2019-03-08T06:07:32.447Z,100353.95
2019-03-08T06:08:37.137Z,100354.95
2019-03-08T06:09:42.462Z,100354.70
2019-03-08T06:10:48.200Z,100357.41
2019-03-08T06:11:54.898Z,100367.30
2019-03-08T06:12:59.978Z,100373.86
2019-03-08T06:14:04.753Z,100373.63
2019-03-08T06:15:09.474Z,100378.63
2019-03-08T06:16:14.219Z,100381.92
2019-03-08T06:17:19.567Z,100383.45
2019-03-08T06:18:24.295Z,100389.48
2019-03-08T06:19:29.312Z,100390.66
2019-03-08T06:20:34.874Z,100386.63
2019-03-08T06:21:39.874Z,100397.19
2019-03-08T06:22:44.822Z,100395.66
2019-03-08T06:23:49.909Z,100398.26
2019-03-08T06:24:55.280Z,100401.38
2019-03-08T06:26:00.583Z,100407.18
2019-03-08T06:27:06.007Z,100407.39
2019-03-08T06:28:10.690Z,100412.37
2019-03-08T06:29:15.726Z,100412.52
2019-03-08T06:30:21.397Z,100417.90
2019-03-08T06:31:26.879Z,100417.86
2019-03-08T06:32:32.019Z,100428.87
2019-03-08T06:33:36.699Z,100427.73
2019-03-08T06:34:42.255Z,100428.14
2019-03-08T06:35:46.972Z,100434.14
2019-03-08T06:36:52.222Z,100441.16
2019-03-08T06:37:57.250Z,100447.72
2019-03-08T06:39:01.757Z,100450.30
2019-03-08T06:40:06.897Z,100451.61
2019-03-08T06:41:12.520Z,100458.67
2019-03-08T06:42:18.249Z,100452.56
2019-03-08T06:43:23.503Z,100469.50
2019-03-08T06:44:29.071Z,100470.94
2019-03-08T06:45:34.407Z,100473.30
2019-03-08T06:46:39.382Z,100475.98
2019-03-08T06:47:44.514Z,100478.83
2019-03-08T06:48:49.532Z,100474.40
2019-03-08T06:49:54.769Z,100476.42
2019-03-08T06:50:59.660Z,100483.80
2019-03-08T06:52:04.563Z,100492.17
2019-03-08T06:53:09.319Z,100488.89
2019-03-08T06:54:14.359Z,100485.09
2019-03-08T06:55:19.379Z,100493.84
2019-03-08T06:56:24.339Z,100493.86
2019-03-08T06:57:29.023Z,100494.16
2019-03-08T06:58:48.311Z,100501.17
2019-03-08T07:00:12.465Z,100500.42
2019-03-08T07:01:23.852Z,100509.93
2019-03-08T07:02:30.206Z,100507.19
2019-03-08T07:03:35.447Z,100514.12
2019-03-08T07:04:42.645Z,100515.98
2019-03-08T07:05:47.375Z,100519.19
2019-03-08T07:06:52.450Z,100525.16
2019-03-08T07:07:57.136Z,100526.31
2019-03-08T07:09:01.813Z,100526.09
2019-03-08T07:10:06.522Z,100538.63
2019-03-08T07:11:11.443Z,100542.67
2019-03-08T07:12:16.760Z,100547.09
2019-03-08T07:13:22.047Z,100545.62
2019-03-08T07:14:27.282Z,100547.20
2019-03-08T07:15:32.288Z,100551.23
2019-03-08T07:16:37.954Z,100555.30
2019-03-08T07:17:42.948Z,100562.63
2019-03-08T07:18:48.305Z,100564.50
2019-03-08T07:20:10.660Z,100566.98
2019-03-08T07:21:26.060Z,100561.78
2019-03-08T07:22:53.043Z,100567.56
2019-03-08T07:24:12.286Z,100571.84
2019-03-08T07:25:51.808Z,100579.22
2019-03-08T07:27:17.133Z,100581.95
2019-03-08T07:28:46.770Z,100581.62
2019-03-08T07:30:09.690Z,100583.34
2019-03-08T07:31:21.890Z,100591.38
2019-03-08T07:32:58.302Z,100589.71
2019-03-08T07:34:21.164Z,100597.36
2019-03-08T07:35:33.617Z,100605.45
2019-03-08T07:36:56.694Z,100604.04
2019-03-08T07:38:38.981Z,100599.47
2019-03-08T07:40:02.600Z,100603.67
2019-03-08T07:41:24.789Z,100610.28
2019-03-08T07:42:58.178Z,100614.41
2019-03-08T07:44:17.126Z,100624.13
2019-03-08T07:45:53.316Z,100622.53
2019-03-08T07:47:35.628Z,100626.95
2019-03-08T07:49:11.572Z,100645.86
2019-03-08T07:50:38.191Z,100647.78
2019-03-08T07:52:07.963Z,100652.09
2019-03-08T07:53:20.046Z,100658.13
2019-03-08T07:54:31.919Z,100653.84
2019-03-08T07:55:46.621Z,100657.77
2019-03-08T07:57:13.239Z,100661.66
2019-03-08T07:58:36.659Z,100670.72
2019-03-08T07:59:59.717Z,100665.41
2019-03-08T08:01:26.929Z,100666.53
2019-03-08T08:02:40.176Z,100672.33
2019-03-08T08:04:06.887Z,100677.19
2019-03-08T08:05:22.807Z,100677.26
2019-03-08T08:06:46.132Z,100680.72
2019-03-08T08:08:09.458Z,100677.95
2019-03-08T08:09:45.419Z,100691.72
2019-03-08T08:11:01.296Z,100698.25
2019-03-08T08:12:30.895Z,100699.42
2019-03-08T08:13:42.321Z,100700.23
2019-03-08T08:15:18.314Z,100696.45
2019-03-08T08:16:48.098Z,100696.45
2019-03-08T08:18:20.122Z,100706.88
2019-03-08T08:19:34.690Z,100710.14
2019-03-08T08:20:58.012Z,100711.21
2019-03-08T08:22:27.732Z,100713.13
2019-03-08T08:23:47.907Z,100716.53
2019-03-08T08:25:00.433Z,100717.95
2019-03-08T08:26:20.212Z,100733.81
2019-03-08T08:27:31.229Z,100728.94
2019-03-08T08:28:55.979Z,100727.19
2019-03-08T08:30:24.406Z,100747.12
2019-03-08T08:31:44.344Z,100731.87
2019-03-08T08:33:17.601Z,100732.39
2019-03-08T08:34:40.321Z,100741.30
2019-03-08T08:36:04.373Z,100747.80
2019-03-08T08:37:28.293Z,100756.82
2019-03-08T08:39:04.163Z,100749.52
2019-03-08T08:40:17.202Z,100754.75
2019-03-08T08:41:50.033Z,100754.63
2019-03-08T08:43:04.746Z,100771.27
2019-03-08T08:44:34.627Z,100772.75
2019-03-08T08:45:57.065Z,100769.48
2019-03-08T08:47:12.602Z,100766.95
2019-03-08T08:48:51.434Z,100769.31
2019-03-08T08:50:14.826Z,100765.38
2019-03-08T08:51:53.819Z,100773.09
2019-03-08T08:53:12.781Z,100780.98
2019-03-08T08:54:45.402Z,100789.50
2019-03-08T08:56:08.139Z,100783.38
2019-03-08T08:57:38.309Z,100778.66
2019-03-08T08:59:02.132Z,100784.28
2019-03-08T09:00:30.917Z,100784.83
2019-03-08T09:01:57.634Z,100792.36
2019-03-08T09:03:24.554Z,100791.78
2019-03-08T09:04:51.591Z,100791.56
2019-03-08T09:06:27.620Z,100787.01
2019-03-08T09:07:49.999Z,100794.58
2019-03-08T09:09:06.084Z,100794.66
2019-03-08T09:10:40.669Z,100800.59
2019-03-08T09:12:13.863Z,100809.57
2019-03-08T09:13:37.461Z,100802.00
2019-03-08T09:15:00.303Z,100797.31
2019-03-08T09:16:33.078Z,100810.13
2019-03-08T09:18:02.889Z,100807.89
2019-03-08T09:19:23.962Z,100807.35
2019-03-08T09:20:49.946Z,100805.77
2019-03-08T09:22:23.280Z,100818.46
2019-03-08T09:23:48.573Z,100817.28
2019-03-08T09:25:18.271Z,100815.53
2019-03-08T09:26:41.118Z,100809.83
2019-03-08T09:28:01.797Z,100820.19
2019-03-08T09:29:31.313Z,100819.69
2019-03-08T09:31:00.916Z,100829.13
2019-03-08T09:32:24.275Z,100823.87
2019-03-08T09:33:48.132Z,100821.28
2019-03-08T09:35:04.031Z,100813.92
2019-03-08T09:36:30.748Z,100832.11
2019-03-08T09:37:45.336Z,100837.51
2019-03-08T09:39:09.218Z,100838.28
2019-03-08T09:40:31.674Z,100840.98
2019-03-08T09:41:57.849Z,100840.87
2019-03-08T09:43:13.546Z,100841.84
2019-03-08T09:44:50.129Z,100853.12
2019-03-08T09:46:12.657Z,100854.93
2019-03-08T09:47:28.505Z,100858.97
2019-03-08T09:48:51.112Z,100856.25
2019-03-08T09:50:14.998Z,100863.84
2019-03-08T09:51:41.692Z,100870.75
2019-03-08T09:52:58.071Z,100856.16
2019-03-08T09:54:14.215Z,100856.16
2019-03-08T09:55:32.205Z,100866.23
2019-03-08T09:56:46.804Z,100869.41
2019-03-08T09:58:28.998Z,100869.45
2019-03-08T09:59:45.880Z,100867.91
2019-03-08T10:01:18.377Z,100868.42
2019-03-08T10:02:57.494Z,100862.00
2019-03-08T10:04:08.148Z,100873.56
2019-03-08T10:05:23.683Z,100879.07
2019-03-08T10:06:47.228Z,100868.98
2019-03-08T10:08:07.460Z,100868.98
2019-03-08T10:09:41.430Z,100882.20
2019-03-08T10:11:10.208Z,100882.20
2019-03-08T10:12:33.016Z,100887.41
2019-03-08T10:13:57.182Z,100880.72
2019-03-08T10:15:24.182Z,100893.73
2019-03-08T10:16:34.232Z,100899.27
2019-03-08T10:17:56.865Z,100891.75
2019-03-08T10:19:20.868Z,100901.26
2019-03-08T10:20:40.767Z,100897.91
2019-03-08T10:22:03.423Z,100898.92
2019-03-08T10:23:20.153Z,100903.03
2019-03-08T10:24:31.193Z,100899.58
2019-03-08T10:25:47.410Z,100913.27
2019-03-08T10:27:37.763Z,100912.53
2019-03-08T10:28:55.102Z,100917.56
2019-03-08T10:30:05.509Z,100919.63
2019-03-08T10:31:29.057Z,100921.69
2019-03-08T10:32:52.616Z,100920.37
2019-03-08T10:34:16.445Z,100920.89
2019-03-08T10:35:37.752Z,100930.70
2019-03-08T10:36:50.372Z,100935.36
2019-03-08T10:38:22.516Z,100931.61
2019-03-08T10:39:42.126Z,100941.70
2019-03-08T10:40:55.909Z,100938.96
2019-03-08T10:42:23.554Z,100943.91
2019-03-08T10:43:45.636Z,100945.73
2019-03-08T10:45:25.011Z,100956.44
2019-03-08T10:46:47.814Z,100955.45
2019-03-08T10:48:14.070Z,100960.98
2019-03-08T10:49:28.513Z,100959.91
2019-03-08T10:50:38.216Z,100961.02
2019-03-08T10:51:49.541Z,100968.84
2019-03-08T10:53:12.054Z,100969.47
2019-03-08T10:54:48.047Z,100967.81
2019-03-08T10:56:12.664Z,100970.64
2019-03-08T10:57:28.944Z,100968.81
2019-03-08T10:58:59.413Z,100975.31
2019-03-08T11:00:21.092Z,100979.55
2019-03-08T11:01:54.318Z,100981.95
2019-03-08T11:03:30.851Z,100983.69
2019-03-08T11:05:03.260Z,100989.66
2019-03-08T11:06:30.038Z,100984.68
2019-03-08T11:07:59.618Z,100996.90
2019-03-08T11:09:16.402Z,100992.28
2019-03-08T11:10:51.911Z,100993.09
2019-03-08T11:12:15.765Z,100996.09
2019-03-08T11:13:57.097Z,100989.81
2019-03-08T11:15:24.415Z,100995.92
2019-03-08T11:16:46.544Z,100992.05
2019-03-08T11:17:56.566Z,100996.70
2019-03-08T11:19:23.152Z,100999.10
2019-03-08T11:20:49.554Z,100995.90
2019-03-08T11:22:11.939Z,101003.59
2019-03-08T11:23:34.684Z,101000.62
2019-03-08T11:25:10.606Z,101006.80
2019-03-08T11:26:33.143Z,101011.56
2019-03-08T11:28:09.420Z,101010.69
2019-03-08T11:29:39.474Z,101020.02
2019-03-08T11:31:03.101Z,101010.99
2019-03-08T11:32:26.052Z,101003.66
2019-03-08T11:33:45.313Z,101012.83
2019-03-08T11:35:24.285Z,101011.22
2019-03-08T11:36:51.435Z,101004.37
2019-03-08T11:38:04.393Z,101004.00
2019-03-08T11:39:27.935Z,101002.58
2019-03-08T11:40:55.538Z,101006.84
2019-03-08T11:42:06.871Z,101010.84
2019-03-08T11:43:30.801Z,101008.93
2019-03-08T11:44:56.923Z,101005.69
2019-03-08T11:46:24.357Z,100997.51
2019-03-08T11:47:47.934Z,101007.95
2019-03-08T11:49:20.785Z,101006.68
2019-03-08T11:50:47.816Z,101012.47
2019-03-08T11:52:00.690Z,101022.17
2019-03-08T11:53:27.620Z,101029.77
2019-03-08T11:54:50.387Z,101047.00
2019-03-08T11:56:17.056Z,101044.73
2019-03-08T11:57:32.274Z,101040.98
2019-03-08T11:58:51.124Z,101023.34
2019-03-08T12:00:23.479Z,101018.11
2019-03-08T12:01:45.817Z,101032.08
2019-03-08T12:03:01.699Z,101032.30
2019-03-08T12:04:43.807Z,101034.14
2019-03-08T12:06:06.834Z,101023.67
2019-03-08T12:07:30.445Z,101022.53
2019-03-08T12:08:57.218Z,101027.97
2019-03-08T12:10:14.566Z,101027.55
2019-03-08T12:11:53.881Z,101083.04
2019-03-08T12:13:09.272Z,101018.77
2019-03-08T12:14:45.045Z,101014.80
2019-03-08T12:16:23.726Z,101009.41
2019-03-08T12:17:38.144Z,101014.12
2019-03-08T12:18:52.889Z,101010.35
2019-03-08T12:20:19.540Z,101008.85
2019-03-08T12:22:01.969Z,101011.23
2019-03-08T12:23:12.883Z,101005.23
2019-03-08T12:24:23.643Z,101007.85
2019-03-08T12:25:41.032Z,101012.20
2019-03-08T12:27:04.750Z,101009.44
2019-03-08T12:28:28.542Z,101007.09
2019-03-08T12:29:39.339Z,101008.89
2019-03-08T12:31:18.416Z,101004.88
2019-03-08T12:32:42.239Z,101002.83
2019-03-08T12:34:18.680Z,101015.99
2019-03-08T12:35:48.306Z,101006.91
2019-03-08T12:37:01.849Z,101015.55
2019-03-08T12:38:28.169Z,101016.98
2019-03-08T12:39:54.748Z,101031.59
2019-03-08T12:41:09.095Z,101014.20
2019-03-08T12:42:24.633Z,101021.55
2019-03-08T12:43:47.635Z,101023.84
2019-03-08T12:45:17.633Z,101024.17
2019-03-08T12:46:50.174Z,101023.84
2019-03-08T12:48:01.380Z,101027.42
2019-03-08T12:49:33.730Z,101031.93
2019-03-08T12:50:55.292Z,101024.00
2019-03-08T12:52:18.207Z,101024.99
2019-03-08T12:53:39.467Z,101028.59
2019-03-08T12:54:54.446Z,101018.70
2019-03-08T12:56:14.586Z,101020.45
2019-03-08T12:57:46.635Z,101019.71
2019-03-08T12:59:07.455Z,101018.84
2019-03-08T13:00:41.697Z,101023.92
2019-03-08T13:02:11.225Z,101023.58
2019-03-08T13:03:41.510Z,101020.34
2019-03-08T13:05:05.162Z,101022.71
2019-03-08T13:06:25.839Z,101019.20
2019-03-08T13:07:49.011Z,101019.28
2019-03-08T13:09:12.661Z,101022.36
2019-03-08T13:10:17.141Z,101019.51
2019-03-08T13:11:22.406Z,101011.81
2019-03-08T13:12:27.946Z,101014.00
2019-03-08T13:13:32.957Z,101016.52
2019-03-08T13:14:37.640Z,101020.13
2019-03-08T13:15:42.645Z,101019.72
2019-03-08T13:16:47.370Z,101019.36
2019-03-08T13:17:52.474Z,101022.25
2019-03-08T13:18:57.818Z,101014.05
2019-03-08T13:20:02.504Z,101018.95
2019-03-08T13:21:07.756Z,101013.90
2019-03-08T13:22:13.046Z,101013.73
2019-03-08T13:23:17.744Z,101016.50
2019-03-08T13:24:22.944Z,101014.53
2019-03-08T13:25:28.503Z,101012.11
2019-03-08T13:26:34.154Z,101005.59
2019-03-08T13:27:39.418Z,101010.23
2019-03-08T13:28:44.674Z,101014.56
2019-03-08T13:29:49.528Z,101021.70
2019-03-08T13:30:54.306Z,101017.91
2019-03-08T13:31:59.192Z,101012.38
2019-03-08T13:33:04.602Z,101016.36
2019-03-08T13:34:09.346Z,101021.17
2019-03-08T13:35:14.447Z,101025.13
2019-03-08T13:36:19.831Z,101017.27
2019-03-08T13:37:24.834Z,101024.45
2019-03-08T13:38:32.128Z,101029.56
2019-03-08T13:39:37.465Z,101034.44
2019-03-08T13:40:42.165Z,101037.49
2019-03-08T13:41:47.223Z,101036.37
2019-03-08T13:42:52.443Z,101023.23
2019-03-08T13:43:57.520Z,101034.91
2019-03-08T13:45:02.597Z,101029.50
2019-03-08T13:46:07.569Z,101025.27
2019-03-08T13:47:12.807Z,101038.52
2019-03-08T13:48:17.951Z,101032.03
2019-03-08T13:49:23.417Z,101030.65